sensor_id;sensor_type;location;lat;lon;timestamp;temperature;humidity
3312;DHT22;1668;49.648;8.570;2023-04-24T00:00:25;11.50;99.90
3312;DHT22;1668;49.648;8.570;2023-04-24T00:02:52;11.50;99.90
3312;DHT22;1668;49.648;8.570;2023-04-24T00:05:23;11.50;99.90
3312;DHT22;1668;49.648;8.570;2023-04-24T00:07:52;11.50;99.90
3312;DHT22;1668;49.648;8.570;2023-04-24T00:10:19;11.50;99.90
3312;DHT22;1668;49.648;8.570;2023-04-24T00:12:46;11.50;99.90
3312;DHT22;1668;49.648;8.570;2023-04-24T00:15:14;11.50;99.90
3312;DHT22;1668;49.648;8.570;2023-04-24T00:17:41;11.50;99.90
3312;DHT22;1668;49.648;8.570;2023-04-24T00:20:08;11.50;99.90
3312;DHT22;1668;49.648;8.570;2023-04-24T00:22:36;11.50;99.90
3312;DHT22;1668;49.648;8.570;2023-04-24T00:25:06;11.50;99.90
3312;DHT22;1668;49.648;8.570;2023-04-24T00:27:33;11.50;99.90
3312;DHT22;1668;49.648;8.570;2023-04-24T00:30:02;11.50;99.90
3312;DHT22;1668;49.648;8.570;2023-04-24T00:32:30;11.50;99.90
3312;DHT22;1668;49.648;8.570;2023-04-24T00:34:57;11.50;99.90
3312;DHT22;1668;49.648;8.570;2023-04-24T00:37:24;11.50;99.90
3312;DHT22;1668;49.648;8.570;2023-04-24T00:39:50;11.50;99.90
3312;DHT22;1668;49.648;8.570;2023-04-24T00:42:19;11.50;99.90
3312;DHT22;1668;49.648;8.570;2023-04-24T00:44:47;11.50;99.90
3312;DHT22;1668;49.648;8.570;2023-04-24T00:47:14;11.50;99.90
3312;DHT22;1668;49.648;8.570;2023-04-24T00:49:41;11.50;99.90
3312;DHT22;1668;49.648;8.570;2023-04-24T00:52:08;11.50;99.90
3312;DHT22;1668;49.648;8.570;2023-04-24T00:54:36;11.50;99.90
3312;DHT22;1668;49.648;8.570;2023-04-24T00:57:03;11.50;99.90
3312;DHT22;1668;49.648;8.570;2023-04-24T00:59:32;11.50;99.90
3312;DHT22;1668;49.648;8.570;2023-04-24T01:01:59;11.50;99.90
3312;DHT22;1668;49.648;8.570;2023-04-24T01:04:26;11.50;99.90
3312;DHT22;1668;49.648;8.570;2023-04-24T01:06:54;11.50;99.90
3312;DHT22;1668;49.648;8.570;2023-04-24T01:09:23;11.50;99.90
3312;DHT22;1668;49.648;8.570;2023-04-24T01:11:50;11.40;99.90
3312;DHT22;1668;49.648;8.570;2023-04-24T01:14:17;11.40;99.90
3312;DHT22;1668;49.648;8.570;2023-04-24T01:16:46;11.40;99.90
3312;DHT22;1668;49.648;8.570;2023-04-24T01:19:14;11.40;99.90
3312;DHT22;1668;49.648;8.570;2023-04-24T01:21:43;11.40;99.90
3312;DHT22;1668;49.648;8.570;2023-04-24T01:24:11;11.40;99.90
3312;DHT22;1668;49.648;8.570;2023-04-24T01:26:39;11.40;99.90
3312;DHT22;1668;49.648;8.570;2023-04-24T01:29:06;11.40;99.90
3312;DHT22;1668;49.648;8.570;2023-04-24T01:31:33;11.50;99.90
3312;DHT22;1668;49.648;8.570;2023-04-24T01:34:01;11.40;99.90
3312;DHT22;1668;49.648;8.570;2023-04-24T01:36:29;11.50;1.00
3312;DHT22;1668;49.648;8.570;2023-04-24T01:38:57;11.50;1.00
3312;DHT22;1668;49.648;8.570;2023-04-24T01:41:25;11.50;1.00
3312;DHT22;1668;49.648;8.570;2023-04-24T01:43:52;11.50;1.00
3312;DHT22;1668;49.648;8.570;2023-04-24T01:46:20;11.50;1.00
3312;DHT22;1668;49.648;8.570;2023-04-24T01:48:47;11.50;1.00
3312;DHT22;1668;49.648;8.570;2023-04-24T01:51:14;11.50;1.00
3312;DHT22;1668;49.648;8.570;2023-04-24T01:53:41;11.40;1.00
3312;DHT22;1668;49.648;8.570;2023-04-24T01:56:09;11.40;1.00
3312;DHT22;1668;49.648;8.570;2023-04-24T01:58:37;11.40;1.00
3312;DHT22;1668;49.648;8.570;2023-04-24T02:01:06;11.40;1.00
3312;DHT22;1668;49.648;8.570;2023-04-24T02:03:33;11.40;1.00
3312;DHT22;1668;49.648;8.570;2023-04-24T02:06:00;11.40;1.00
3312;DHT22;1668;49.648;8.570;2023-04-24T02:08:27;11.40;1.00
3312;DHT22;1668;49.648;8.570;2023-04-24T02:10:54;11.40;99.90
3312;DHT22;1668;49.648;8.570;2023-04-24T02:13:21;11.40;1.00
3312;DHT22;1668;49.648;8.570;2023-04-24T02:15:49;11.40;1.00
3312;DHT22;1668;49.648;8.570;2023-04-24T02:18:16;11.40;1.00
3312;DHT22;1668;49.648;8.570;2023-04-24T02:20:43;11.40;1.00
3312;DHT22;1668;49.648;8.570;2023-04-24T02:23:10;11.40;99.90
3312;DHT22;1668;49.648;8.570;2023-04-24T02:25:38;11.40;1.00
3312;DHT22;1668;49.648;8.570;2023-04-24T02:28:05;11.40;99.90
3312;DHT22;1668;49.648;8.570;2023-04-24T02:30:33;11.40;99.90
3312;DHT22;1668;49.648;8.570;2023-04-24T02:33:01;11.40;1.00
3312;DHT22;1668;49.648;8.570;2023-04-24T02:35:29;11.40;1.00
3312;DHT22;1668;49.648;8.570;2023-04-24T02:37:55;11.30;1.00
3312;DHT22;1668;49.648;8.570;2023-04-24T02:40:22;11.30;47.30
3312;DHT22;1668;49.648;8.570;2023-04-24T02:42:49;11.30;77.90
3312;DHT22;1668;49.648;8.570;2023-04-24T02:45:16;11.20;99.90
3312;DHT22;1668;49.648;8.570;2023-04-24T02:47:44;11.20;99.90
3312;DHT22;1668;49.648;8.570;2023-04-24T02:50:12;11.20;99.90
3312;DHT22;1668;49.648;8.570;2023-04-24T02:52:39;11.20;99.90
3312;DHT22;1668;49.648;8.570;2023-04-24T02:55:07;11.20;99.90
3312;DHT22;1668;49.648;8.570;2023-04-24T02:57:34;11.20;99.90
3312;DHT22;1668;49.648;8.570;2023-04-24T03:00:01;11.20;99.90
3312;DHT22;1668;49.648;8.570;2023-04-24T03:02:31;11.20;99.90
3312;DHT22;1668;49.648;8.570;2023-04-24T03:04:59;11.10;99.90
3312;DHT22;1668;49.648;8.570;2023-04-24T03:07:28;11.10;99.90
3312;DHT22;1668;49.648;8.570;2023-04-24T03:09:55;11.00;99.90
3312;DHT22;1668;49.648;8.570;2023-04-24T03:12:23;11.00;99.90
3312;DHT22;1668;49.648;8.570;2023-04-24T03:14:50;11.00;99.90
3312;DHT22;1668;49.648;8.570;2023-04-24T03:17:17;11.00;99.90
3312;DHT22;1668;49.648;8.570;2023-04-24T03:19:44;11.00;99.90
3312;DHT22;1668;49.648;8.570;2023-04-24T03:22:11;10.90;99.90
3312;DHT22;1668;49.648;8.570;2023-04-24T03:24:40;10.90;99.90
3312;DHT22;1668;49.648;8.570;2023-04-24T03:27:07;10.80;99.90
3312;DHT22;1668;49.648;8.570;2023-04-24T03:29:33;10.80;99.90
3312;DHT22;1668;49.648;8.570;2023-04-24T03:32:00;10.80;99.90
3312;DHT22;1668;49.648;8.570;2023-04-24T03:34:27;10.80;99.90
3312;DHT22;1668;49.648;8.570;2023-04-24T03:36:54;10.80;99.90
3312;DHT22;1668;49.648;8.570;2023-04-24T03:39:21;10.80;99.90
3312;DHT22;1668;49.648;8.570;2023-04-24T03:41:50;10.70;99.90
3312;DHT22;1668;49.648;8.570;2023-04-24T03:44:17;10.70;99.90
3312;DHT22;1668;49.648;8.570;2023-04-24T03:46:44;10.70;99.90
3312;DHT22;1668;49.648;8.570;2023-04-24T03:49:10;10.70;67.00
3312;DHT22;1668;49.648;8.570;2023-04-24T03:51:37;10.70;94.00
3312;DHT22;1668;49.648;8.570;2023-04-24T03:54:04;10.70;99.90
3312;DHT22;1668;49.648;8.570;2023-04-24T03:56:31;10.70;99.90
3312;DHT22;1668;49.648;8.570;2023-04-24T03:59:00;10.70;99.90
3312;DHT22;1668;49.648;8.570;2023-04-24T04:01:27;10.70;99.90
3312;DHT22;1668;49.648;8.570;2023-04-24T04:03:56;10.60;84.70
3312;DHT22;1668;49.648;8.570;2023-04-24T04:06:23;10.60;27.50
3312;DHT22;1668;49.648;8.570;2023-04-24T04:08:50;10.50;1.00
3312;DHT22;1668;49.648;8.570;2023-04-24T04:11:17;10.40;1.00
3312;DHT22;1668;49.648;8.570;2023-04-24T04:13:44;10.40;1.00
3312;DHT22;1668;49.648;8.570;2023-04-24T04:16:12;10.40;1.00
3312;DHT22;1668;49.648;8.570;2023-04-24T04:18:39;10.40;1.00
3312;DHT22;1668;49.648;8.570;2023-04-24T04:21:06;10.30;1.00
3312;DHT22;1668;49.648;8.570;2023-04-24T04:23:33;10.30;1.00
3312;DHT22;1668;49.648;8.570;2023-04-24T04:26:00;10.30;1.00
3312;DHT22;1668;49.648;8.570;2023-04-24T04:28:27;10.20;1.00
3312;DHT22;1668;49.648;8.570;2023-04-24T04:30:56;10.20;1.00
3312;DHT22;1668;49.648;8.570;2023-04-24T04:33:24;10.20;1.00
3312;DHT22;1668;49.648;8.570;2023-04-24T04:35:51;10.20;1.00
3312;DHT22;1668;49.648;8.570;2023-04-24T04:38:19;10.20;1.00
3312;DHT22;1668;49.648;8.570;2023-04-24T04:40:46;10.20;1.00
3312;DHT22;1668;49.648;8.570;2023-04-24T04:43:13;10.10;1.00
3312;DHT22;1668;49.648;8.570;2023-04-24T04:45:40;10.10;1.00
3312;DHT22;1668;49.648;8.570;2023-04-24T04:48:09;10.00;1.00
3312;DHT22;1668;49.648;8.570;2023-04-24T04:50:39;10.00;1.00
3312;DHT22;1668;49.648;8.570;2023-04-24T04:53:06;10.00;1.00
3312;DHT22;1668;49.648;8.570;2023-04-24T04:55:33;10.00;1.00
3312;DHT22;1668;49.648;8.570;2023-04-24T04:58:00;10.00;1.00
3312;DHT22;1668;49.648;8.570;2023-04-24T05:00:27;10.00;1.00
3312;DHT22;1668;49.648;8.570;2023-04-24T05:02:59;9.90;1.00
3312;DHT22;1668;49.648;8.570;2023-04-24T05:05:26;9.90;1.00
3312;DHT22;1668;49.648;8.570;2023-04-24T05:07:54;9.90;1.00
3312;DHT22;1668;49.648;8.570;2023-04-24T05:10:21;9.90;1.00
3312;DHT22;1668;49.648;8.570;2023-04-24T05:12:48;9.90;99.90
3312;DHT22;1668;49.648;8.570;2023-04-24T05:15:16;9.80;99.90
3312;DHT22;1668;49.648;8.570;2023-04-24T05:17:43;9.90;99.90
3312;DHT22;1668;49.648;8.570;2023-04-24T05:20:10;9.80;99.90
3312;DHT22;1668;49.648;8.570;2023-04-24T05:22:37;9.90;72.10
3312;DHT22;1668;49.648;8.570;2023-04-24T05:25:06;9.90;99.90
3312;DHT22;1668;49.648;8.570;2023-04-24T05:27:34;9.90;1.00
3312;DHT22;1668;49.648;8.570;2023-04-24T05:30:01;9.90;1.00
3312;DHT22;1668;49.648;8.570;2023-04-24T05:32:28;9.90;99.90
3312;DHT22;1668;49.648;8.570;2023-04-24T05:34:54;9.90;99.90
3312;DHT22;1668;49.648;8.570;2023-04-24T05:37:21;10.00;99.90
3312;DHT22;1668;49.648;8.570;2023-04-24T05:39:48;9.90;99.90
3312;DHT22;1668;49.648;8.570;2023-04-24T05:42:17;9.90;1.00
3312;DHT22;1668;49.648;8.570;2023-04-24T05:44:44;9.90;99.90
3312;DHT22;1668;49.648;8.570;2023-04-24T05:47:11;9.90;1.00
3312;DHT22;1668;49.648;8.570;2023-04-24T05:49:38;10.00;1.00
3312;DHT22;1668;49.648;8.570;2023-04-24T05:52:05;10.00;26.80
3312;DHT22;1668;49.648;8.570;2023-04-24T05:54:34;10.00;1.00
3312;DHT22;1668;49.648;8.570;2023-04-24T05:57:01;10.10;99.90
3312;DHT22;1668;49.648;8.570;2023-04-24T05:59:36;10.10;99.90
3312;DHT22;1668;49.648;8.570;2023-04-24T06:02:03;10.20;99.90
3312;DHT22;1668;49.648;8.570;2023-04-24T06:04:30;10.20;1.00
3312;DHT22;1668;49.648;8.570;2023-04-24T06:06:57;10.20;27.80
3312;DHT22;1668;49.648;8.570;2023-04-24T06:09:24;10.20;1.00
3312;DHT22;1668;49.648;8.570;2023-04-24T06:11:51;10.10;99.90
3312;DHT22;1668;49.648;8.570;2023-04-24T06:14:19;10.10;41.70
3312;DHT22;1668;49.648;8.570;2023-04-24T06:16:48;10.10;21.20
3312;DHT22;1668;49.648;8.570;2023-04-24T06:19:15;10.10;89.10
3312;DHT22;1668;49.648;8.570;2023-04-24T06:21:42;10.10;99.90
3312;DHT22;1668;49.648;8.570;2023-04-24T06:24:09;10.10;99.90
3312;DHT22;1668;49.648;8.570;2023-04-24T06:26:36;10.10;99.90
3312;DHT22;1668;49.648;8.570;2023-04-24T06:29:02;10.20;1.00
3312;DHT22;1668;49.648;8.570;2023-04-24T06:31:30;10.20;99.90
3312;DHT22;1668;49.648;8.570;2023-04-24T06:34:04;10.20;99.90
3312;DHT22;1668;49.648;8.570;2023-04-24T06:36:31;10.30;99.90
3312;DHT22;1668;49.648;8.570;2023-04-24T06:39:00;10.30;99.90
3312;DHT22;1668;49.648;8.570;2023-04-24T06:41:27;10.40;1.00
3312;DHT22;1668;49.648;8.570;2023-04-24T06:43:54;10.30;1.00
3312;DHT22;1668;49.648;8.570;2023-04-24T06:46:21;10.40;44.50
3312;DHT22;1668;49.648;8.570;2023-04-24T06:48:51;10.40;1.00
3312;DHT22;1668;49.648;8.570;2023-04-24T06:51:22;10.40;1.00
3312;DHT22;1668;49.648;8.570;2023-04-24T06:53:50;10.40;66.30
3312;DHT22;1668;49.648;8.570;2023-04-24T06:56:17;10.40;1.00
3312;DHT22;1668;49.648;8.570;2023-04-24T06:58:44;10.40;1.00
3312;DHT22;1668;49.648;8.570;2023-04-24T07:01:11;10.40;99.90
3312;DHT22;1668;49.648;8.570;2023-04-24T07:03:38;10.40;99.90
3312;DHT22;1668;49.648;8.570;2023-04-24T07:06:06;10.40;1.00
3312;DHT22;1668;49.648;8.570;2023-04-24T07:08:34;10.40;99.90
3312;DHT22;1668;49.648;8.570;2023-04-24T07:11:02;10.40;99.90
3312;DHT22;1668;49.648;8.570;2023-04-24T07:13:29;10.40;60.70
3312;DHT22;1668;49.648;8.570;2023-04-24T07:15:56;10.40;81.20
3312;DHT22;1668;49.648;8.570;2023-04-24T07:18:23;10.30;1.00
3312;DHT22;1668;49.648;8.570;2023-04-24T07:20:50;10.30;99.90
3312;DHT22;1668;49.648;8.570;2023-04-24T07:23:18;10.40;99.90
3312;DHT22;1668;49.648;8.570;2023-04-24T07:25:47;10.40;1.00
3312;DHT22;1668;49.648;8.570;2023-04-24T07:28:14;10.50;1.00
3312;DHT22;1668;49.648;8.570;2023-04-24T07:30:43;10.60;1.00
3312;DHT22;1668;49.648;8.570;2023-04-24T07:33:10;10.70;6.40
3312;DHT22;1668;49.648;8.570;2023-04-24T07:35:38;10.70;1.00
3312;DHT22;1668;49.648;8.570;2023-04-24T07:38:05;10.80;99.90
3312;DHT22;1668;49.648;8.570;2023-04-24T07:40:32;10.80;1.00
3312;DHT22;1668;49.648;8.570;2023-04-24T07:43:01;10.90;99.90
3312;DHT22;1668;49.648;8.570;2023-04-24T07:45:28;11.00;1.00
3312;DHT22;1668;49.648;8.570;2023-04-24T07:47:55;11.00;99.90
3312;DHT22;1668;49.648;8.570;2023-04-24T07:50:22;11.10;99.90
3312;DHT22;1668;49.648;8.570;2023-04-24T07:52:49;11.10;1.80
3312;DHT22;1668;49.648;8.570;2023-04-24T07:55:16;11.20;31.50
3312;DHT22;1668;49.648;8.570;2023-04-24T07:57:43;11.30;1.00
3312;DHT22;1668;49.648;8.570;2023-04-24T08:00:13;11.40;92.20
3312;DHT22;1668;49.648;8.570;2023-04-24T08:02:40;11.50;1.00
3312;DHT22;1668;49.648;8.570;2023-04-24T08:05:08;11.60;99.90
3312;DHT22;1668;49.648;8.570;2023-04-24T08:07:35;11.60;98.50
3312;DHT22;1668;49.648;8.570;2023-04-24T08:10:04;11.70;1.00
3312;DHT22;1668;49.648;8.570;2023-04-24T08:12:32;11.70;1.00
3312;DHT22;1668;49.648;8.570;2023-04-24T08:14:59;11.70;1.00
3312;DHT22;1668;49.648;8.570;2023-04-24T08:17:28;11.70;1.00
3312;DHT22;1668;49.648;8.570;2023-04-24T08:19:55;11.80;1.00
3312;DHT22;1668;49.648;8.570;2023-04-24T08:22:27;11.90;1.00
3312;DHT22;1668;49.648;8.570;2023-04-24T08:24:54;12.00;1.00
3312;DHT22;1668;49.648;8.570;2023-04-24T08:27:23;12.10;1.00
3312;DHT22;1668;49.648;8.570;2023-04-24T08:29:50;12.20;1.00
3312;DHT22;1668;49.648;8.570;2023-04-24T08:32:17;12.30;1.00
3312;DHT22;1668;49.648;8.570;2023-04-24T08:34:45;12.10;99.90
3312;DHT22;1668;49.648;8.570;2023-04-24T08:37:13;12.10;1.00
3312;DHT22;1668;49.648;8.570;2023-04-24T08:39:40;12.20;1.00
3312;DHT22;1668;49.648;8.570;2023-04-24T08:42:08;12.30;99.90
3312;DHT22;1668;49.648;8.570;2023-04-24T08:44:36;12.40;99.90
3312;DHT22;1668;49.648;8.570;2023-04-24T08:47:03;12.30;99.90
3312;DHT22;1668;49.648;8.570;2023-04-24T08:49:31;12.40;99.90
3312;DHT22;1668;49.648;8.570;2023-04-24T08:51:59;12.40;16.00
3312;DHT22;1668;49.648;8.570;2023-04-24T08:54:27;12.30;44.70
3312;DHT22;1668;49.648;8.570;2023-04-24T08:56:58;12.30;1.00
3312;DHT22;1668;49.648;8.570;2023-04-24T08:59:27;12.40;57.20
3312;DHT22;1668;49.648;8.570;2023-04-24T09:01:55;12.40;36.10
3312;DHT22;1668;49.648;8.570;2023-04-24T09:04:24;12.50;60.80
3312;DHT22;1668;49.648;8.570;2023-04-24T09:06:52;12.50;43.60
3312;DHT22;1668;49.648;8.570;2023-04-24T09:09:23;12.50;1.00
3312;DHT22;1668;49.648;8.570;2023-04-24T09:11:51;12.50;1.00
3312;DHT22;1668;49.648;8.570;2023-04-24T09:14:19;12.40;1.00
3312;DHT22;1668;49.648;8.570;2023-04-24T09:16:47;12.30;1.00
3312;DHT22;1668;49.648;8.570;2023-04-24T09:19:15;12.30;1.00
3312;DHT22;1668;49.648;8.570;2023-04-24T09:21:45;12.30;67.80
3312;DHT22;1668;49.648;8.570;2023-04-24T09:24:16;12.40;94.20
3312;DHT22;1668;49.648;8.570;2023-04-24T09:26:47;12.40;99.90
3312;DHT22;1668;49.648;8.570;2023-04-24T09:29:15;12.40;99.90
3312;DHT22;1668;49.648;8.570;2023-04-24T09:31:43;12.40;67.70
3312;DHT22;1668;49.648;8.570;2023-04-24T09:34:10;12.30;53.10
3312;DHT22;1668;49.648;8.570;2023-04-24T09:36:38;12.30;97.10
3312;DHT22;1668;49.648;8.570;2023-04-24T09:39:08;12.30;1.00
3312;DHT22;1668;49.648;8.570;2023-04-24T09:41:44;12.20;49.40
3312;DHT22;1668;49.648;8.570;2023-04-24T09:44:13;12.20;62.50
3312;DHT22;1668;49.648;8.570;2023-04-24T09:46:41;12.10;79.70
3312;DHT22;1668;49.648;8.570;2023-04-24T09:49:10;12.00;21.40
3312;DHT22;1668;49.648;8.570;2023-04-24T09:51:38;12.00;99.20
3312;DHT22;1668;49.648;8.570;2023-04-24T09:54:13;12.00;99.90
3312;DHT22;1668;49.648;8.570;2023-04-24T09:56:43;11.90;99.90
3312;DHT22;1668;49.648;8.570;2023-04-24T09:59:12;11.90;99.90
3312;DHT22;1668;49.648;8.570;2023-04-24T10:01:41;11.90;71.50
3312;DHT22;1668;49.648;8.570;2023-04-24T10:04:17;11.80;75.00
3312;DHT22;1668;49.648;8.570;2023-04-24T10:06:45;11.80;99.90
3312;DHT22;1668;49.648;8.570;2023-04-24T10:09:14;11.70;99.90
3312;DHT22;1668;49.648;8.570;2023-04-24T10:11:42;11.70;1.00
3312;DHT22;1668;49.648;8.570;2023-04-24T10:14:14;11.70;99.90
3312;DHT22;1668;49.648;8.570;2023-04-24T10:16:42;11.70;99.90
3312;DHT22;1668;49.648;8.570;2023-04-24T10:19:10;11.70;99.90
3312;DHT22;1668;49.648;8.570;2023-04-24T10:21:40;11.70;99.90
3312;DHT22;1668;49.648;8.570;2023-04-24T10:24:12;11.70;99.90
3312;DHT22;1668;49.648;8.570;2023-04-24T10:26:40;11.80;99.90
3312;DHT22;1668;49.648;8.570;2023-04-24T10:29:08;11.80;99.90
3312;DHT22;1668;49.648;8.570;2023-04-24T10:31:39;11.80;55.80
3312;DHT22;1668;49.648;8.570;2023-04-24T10:34:08;11.80;83.00
3312;DHT22;1668;49.648;8.570;2023-04-24T10:36:38;11.80;51.40
3312;DHT22;1668;49.648;8.570;2023-04-24T10:39:11;11.80;99.90
3312;DHT22;1668;49.648;8.570;2023-04-24T10:41:40;11.80;18.70
3312;DHT22;1668;49.648;8.570;2023-04-24T10:44:07;11.80;3.00
3312;DHT22;1668;49.648;8.570;2023-04-24T10:46:35;11.80;1.00
3312;DHT22;1668;49.648;8.570;2023-04-24T10:49:13;11.80;1.00
3312;DHT22;1668;49.648;8.570;2023-04-24T10:52:00;11.80;41.90
3312;DHT22;1668;49.648;8.570;2023-04-24T10:54:42;11.80;61.30
3312;DHT22;1668;49.648;8.570;2023-04-24T10:57:27;11.80;1.00
3312;DHT22;1668;49.648;8.570;2023-04-24T11:00:14;11.90;69.30
3312;DHT22;1668;49.648;8.570;2023-04-24T11:02:41;11.90;1.80
3312;DHT22;1668;49.648;8.570;2023-04-24T11:05:16;12.00;1.00
3312;DHT22;1668;49.648;8.570;2023-04-24T11:08:12;12.00;1.00
3312;DHT22;1668;49.648;8.570;2023-04-24T11:10:40;12.00;1.00
3312;DHT22;1668;49.648;8.570;2023-04-24T11:13:10;12.10;13.40
3312;DHT22;1668;49.648;8.570;2023-04-24T11:15:40;12.20;1.00
3312;DHT22;1668;49.648;8.570;2023-04-24T11:18:12;12.40;1.00
3312;DHT22;1668;49.648;8.570;2023-04-24T11:20:50;12.40;1.00
3312;DHT22;1668;49.648;8.570;2023-04-24T11:23:20;12.40;1.00
3312;DHT22;1668;49.648;8.570;2023-04-24T11:26:10;12.50;1.00
3312;DHT22;1668;49.648;8.570;2023-04-24T11:28:37;12.60;1.00
3312;DHT22;1668;49.648;8.570;2023-04-24T11:31:34;12.60;1.00
3312;DHT22;1668;49.648;8.570;2023-04-24T11:34:13;12.60;1.00
3312;DHT22;1668;49.648;8.570;2023-04-24T11:36:43;12.70;1.00
3312;DHT22;1668;49.648;8.570;2023-04-24T11:39:10;12.70;1.00
3312;DHT22;1668;49.648;8.570;2023-04-24T11:41:38;12.60;1.00
3312;DHT22;1668;49.648;8.570;2023-04-24T11:44:06;12.60;1.00
3312;DHT22;1668;49.648;8.570;2023-04-24T11:46:34;12.60;1.00
3312;DHT22;1668;49.648;8.570;2023-04-24T11:49:04;12.70;1.00
3312;DHT22;1668;49.648;8.570;2023-04-24T11:51:32;12.70;1.00
3312;DHT22;1668;49.648;8.570;2023-04-24T12:02:23;12.90;1.00
3312;DHT22;1668;49.648;8.570;2023-04-24T12:04:53;13.20;1.00
3312;DHT22;1668;49.648;8.570;2023-04-24T12:07:24;13.40;1.00
3312;DHT22;1668;49.648;8.570;2023-04-24T12:09:58;13.50;1.00
3312;DHT22;1668;49.648;8.570;2023-04-24T12:12:29;13.60;1.00
3312;DHT22;1668;49.648;8.570;2023-04-24T12:15:12;13.50;1.00
3312;DHT22;1668;49.648;8.570;2023-04-24T12:17:52;13.50;1.00
3312;DHT22;1668;49.648;8.570;2023-04-24T12:20:26;13.50;1.00
3312;DHT22;1668;49.648;8.570;2023-04-24T12:22:55;13.30;1.00
3312;DHT22;1668;49.648;8.570;2023-04-24T12:25:24;13.30;1.00
3312;DHT22;1668;49.648;8.570;2023-04-24T12:27:55;13.30;1.00
3312;DHT22;1668;49.648;8.570;2023-04-24T12:30:40;13.20;1.00
3312;DHT22;1668;49.648;8.570;2023-04-24T12:33:08;13.20;1.00
3312;DHT22;1668;49.648;8.570;2023-04-24T12:35:35;13.10;1.00
3312;DHT22;1668;49.648;8.570;2023-04-24T12:38:06;13.00;1.00
3312;DHT22;1668;49.648;8.570;2023-04-24T12:40:33;13.10;1.00
3312;DHT22;1668;49.648;8.570;2023-04-24T12:43:00;13.10;1.00
3312;DHT22;1668;49.648;8.570;2023-04-24T12:45:27;13.10;1.00
3312;DHT22;1668;49.648;8.570;2023-04-24T12:47:56;13.10;1.00
3312;DHT22;1668;49.648;8.570;2023-04-24T12:50:23;13.20;1.00
3312;DHT22;1668;49.648;8.570;2023-04-24T12:52:50;13.30;1.00
3312;DHT22;1668;49.648;8.570;2023-04-24T12:55:17;13.40;1.00
3312;DHT22;1668;49.648;8.570;2023-04-24T12:57:44;13.40;1.00
3312;DHT22;1668;49.648;8.570;2023-04-24T13:00:12;13.60;1.00
3312;DHT22;1668;49.648;8.570;2023-04-24T13:02:39;13.70;1.00
3312;DHT22;1668;49.648;8.570;2023-04-24T13:05:08;13.70;1.00
3312;DHT22;1668;49.648;8.570;2023-04-24T13:07:37;13.60;1.00
3312;DHT22;1668;49.648;8.570;2023-04-24T13:10:04;13.60;1.00
3312;DHT22;1668;49.648;8.570;2023-04-24T13:12:32;13.50;1.00
3312;DHT22;1668;49.648;8.570;2023-04-24T13:14:59;13.50;1.00
3312;DHT22;1668;49.648;8.570;2023-04-24T13:17:26;13.50;1.00
3312;DHT22;1668;49.648;8.570;2023-04-24T13:19:54;13.40;1.00
3312;DHT22;1668;49.648;8.570;2023-04-24T13:22:23;13.50;1.00
3312;DHT22;1668;49.648;8.570;2023-04-24T13:24:50;13.50;1.00
3312;DHT22;1668;49.648;8.570;2023-04-24T13:27:17;13.60;1.00
3312;DHT22;1668;49.648;8.570;2023-04-24T13:29:45;13.90;1.00
3312;DHT22;1668;49.648;8.570;2023-04-24T13:32:12;14.10;1.00
3312;DHT22;1668;49.648;8.570;2023-04-24T13:34:39;14.10;1.00
3312;DHT22;1668;49.648;8.570;2023-04-24T13:37:06;14.00;1.00
3312;DHT22;1668;49.648;8.570;2023-04-24T13:39:34;13.90;1.00
3312;DHT22;1668;49.648;8.570;2023-04-24T13:42:02;13.90;1.00
3312;DHT22;1668;49.648;8.570;2023-04-24T13:44:29;13.90;1.00
3312;DHT22;1668;49.648;8.570;2023-04-24T13:47:06;13.80;1.00
3312;DHT22;1668;49.648;8.570;2023-04-24T13:49:37;13.80;1.00
3312;DHT22;1668;49.648;8.570;2023-04-24T13:52:04;13.70;1.00
3312;DHT22;1668;49.648;8.570;2023-04-24T13:54:31;13.70;1.00
3312;DHT22;1668;49.648;8.570;2023-04-24T13:56:59;13.60;1.00
3312;DHT22;1668;49.648;8.570;2023-04-24T13:59:28;13.60;1.00
3312;DHT22;1668;49.648;8.570;2023-04-24T14:01:55;13.50;1.00
3312;DHT22;1668;49.648;8.570;2023-04-24T14:04:22;13.50;1.00
3312;DHT22;1668;49.648;8.570;2023-04-24T14:06:49;13.50;1.00
3312;DHT22;1668;49.648;8.570;2023-04-24T14:09:16;13.50;1.00
3312;DHT22;1668;49.648;8.570;2023-04-24T14:11:43;13.50;1.00
3312;DHT22;1668;49.648;8.570;2023-04-24T14:14:11;13.50;1.00
3312;DHT22;1668;49.648;8.570;2023-04-24T14:16:38;13.60;1.00
3312;DHT22;1668;49.648;8.570;2023-04-24T14:19:06;13.50;1.00
3312;DHT22;1668;49.648;8.570;2023-04-24T14:21:33;13.50;1.00
3312;DHT22;1668;49.648;8.570;2023-04-24T14:24:00;13.50;1.00
3312;DHT22;1668;49.648;8.570;2023-04-24T14:26:27;13.50;1.00
3312;DHT22;1668;49.648;8.570;2023-04-24T14:28:54;13.50;1.00
3312;DHT22;1668;49.648;8.570;2023-04-24T14:31:23;13.50;1.00
3312;DHT22;1668;49.648;8.570;2023-04-24T14:33:50;13.60;1.00
3312;DHT22;1668;49.648;8.570;2023-04-24T14:36:17;13.60;1.00
3312;DHT22;1668;49.648;8.570;2023-04-24T14:38:44;13.60;1.00
3312;DHT22;1668;49.648;8.570;2023-04-24T14:41:11;13.70;1.00
3312;DHT22;1668;49.648;8.570;2023-04-24T14:43:39;13.70;1.00
3312;DHT22;1668;49.648;8.570;2023-04-24T14:46:06;13.80;1.00
3312;DHT22;1668;49.648;8.570;2023-04-24T14:48:34;13.80;1.00
3312;DHT22;1668;49.648;8.570;2023-04-24T14:51:01;13.90;1.00
3312;DHT22;1668;49.648;8.570;2023-04-24T14:53:28;13.90;1.00
3312;DHT22;1668;49.648;8.570;2023-04-24T14:55:55;13.90;1.00
3312;DHT22;1668;49.648;8.570;2023-04-24T14:58:22;13.90;1.00
3312;DHT22;1668;49.648;8.570;2023-04-24T15:00:49;13.90;1.00
3312;DHT22;1668;49.648;8.570;2023-04-24T15:03:18;13.80;1.00
3312;DHT22;1668;49.648;8.570;2023-04-24T15:05:47;13.80;1.00
3312;DHT22;1668;49.648;8.570;2023-04-24T15:08:43;13.70;1.00
3312;DHT22;1668;49.648;8.570;2023-04-24T15:11:45;13.70;1.00
3312;DHT22;1668;49.648;8.570;2023-04-24T15:14:15;13.70;1.00
3312;DHT22;1668;49.648;8.570;2023-04-24T15:16:42;13.60;1.00
3312;DHT22;1668;49.648;8.570;2023-04-24T15:19:35;13.60;1.00
3312;DHT22;1668;49.648;8.570;2023-04-24T15:22:04;13.50;1.00
3312;DHT22;1668;49.648;8.570;2023-04-24T15:24:47;13.50;1.00
3312;DHT22;1668;49.648;8.570;2023-04-24T15:27:49;13.50;1.00
3312;DHT22;1668;49.648;8.570;2023-04-24T15:30:16;13.50;1.00
3312;DHT22;1668;49.648;8.570;2023-04-24T15:32:43;13.50;1.00
3312;DHT22;1668;49.648;8.570;2023-04-24T15:35:10;13.60;1.00
3312;DHT22;1668;49.648;8.570;2023-04-24T15:37:38;13.70;1.00
3312;DHT22;1668;49.648;8.570;2023-04-24T15:40:10;13.70;1.00
3312;DHT22;1668;49.648;8.570;2023-04-24T15:42:46;13.70;1.00
3312;DHT22;1668;49.648;8.570;2023-04-24T15:45:13;13.70;1.00
3312;DHT22;1668;49.648;8.570;2023-04-24T15:47:40;13.70;1.00
3312;DHT22;1668;49.648;8.570;2023-04-24T15:50:08;13.70;1.00
3312;DHT22;1668;49.648;8.570;2023-04-24T15:52:44;13.70;1.00
3312;DHT22;1668;49.648;8.570;2023-04-24T15:55:18;13.60;1.00
3312;DHT22;1668;49.648;8.570;2023-04-24T15:57:45;13.50;1.00
3312;DHT22;1668;49.648;8.570;2023-04-24T16:00:38;13.40;1.00
3312;DHT22;1668;49.648;8.570;2023-04-24T16:03:25;13.60;1.00
3312;DHT22;1668;49.648;8.570;2023-04-24T16:05:52;13.80;1.00
3312;DHT22;1668;49.648;8.570;2023-04-24T16:08:21;13.90;1.00
3312;DHT22;1668;49.648;8.570;2023-04-24T16:10:48;13.90;34.50
3312;DHT22;1668;49.648;8.570;2023-04-24T16:13:15;13.80;1.00
3312;DHT22;1668;49.648;8.570;2023-04-24T16:15:43;13.80;29.80
3312;DHT22;1668;49.648;8.570;2023-04-24T16:18:11;13.70;1.00
3312;DHT22;1668;49.648;8.570;2023-04-24T16:20:38;13.60;1.00
3312;DHT22;1668;49.648;8.570;2023-04-24T16:23:05;13.70;1.00
3312;DHT22;1668;49.648;8.570;2023-04-24T16:25:33;13.90;1.00
3312;DHT22;1668;49.648;8.570;2023-04-24T16:28:00;13.90;1.00
3312;DHT22;1668;49.648;8.570;2023-04-24T16:30:27;14.10;1.00